Data for 07/29/2005

Time Sea-Level Adjusted Pressure Absolute Pressure Temperature Relative Humidity Dew Point   
(mb) (inHg) (mb) (inHg) (C) (F) (%) (C) (F)
00:05 1020 30.12 849 25.07 16.8 62.2 45 5 41.1
00:10 1020 30.12 849 25.07 16.7 62.1 44 4.5 40.2
00:15 1020 30.12 849 25.07 16.8 62.2 46 5.3 41.5
00:20 1020 30.12 849 25.07 16.2 61.2 48 5.4 41.7
00:25 1020 30.12 849 25.07 15.6 60.1 51 5.5 41.9
00:30 1020 30.12 849 25.07 15.8 60.4 47 4.5 40
00:35 1020 30.12 849 25.07 16.2 61.2 48 5.3 41.6
00:40 1020 30.12 849 25.07 15.6 60.2 49 5.1 41.3
00:45 1020 30.12 849 25.07 15.5 59.8 49 5 41
00:50 1020 30.12 849 25.07 15.6 60 49 4.9 40.8
00:55 1020 30.12 849 25.07 15.7 60.2 49 5 41
01:00 1020 30.12 849 25.07 15.7 60.3 50 5.5 42
01:05 1020 30.12 849 25.07 15.6 60.1 49 5 41
01:10 1020 30.12 849 25.07 15.1 59.1 51 5.2 41.4
01:15 1020 30.12 849 25.07 14.8 58.6 51 4.9 40.8
01:20 1020 30.12 849 25.07 15 58.9 49 4.3 39.8
01:25 1020 30.12 849 25.07 15.5 60 47 4.3 39.7
01:30 1020 30.12 849 25.07 15.8 60.5 46 4.3 39.8
01:35 1020 30.12 849 25.07 15.8 60.4 47 4.6 40.3
01:40 1020 30.12 849 25.07 15.5 60 47 4.5 40.1
01:45 1020 30.12 849 25.07 15.3 59.5 50 4.9 40.9
01:50 1020 30.12 849 25.07 14.6 58.4 53 5.1 41.2
01:55 1020 30.12 849 25.07 14.3 57.8 53 4.9 40.9
02:00 1020 30.12 849 25.07 14.5 58 50 4.3 39.7
02:05 1020 30.12 849 25.07 14.6 58.3 51 4.6 40.3
02:10 1020 30.12 849 25.07 14.8 58.7 49 4.3 39.7
02:15 1020 30.12 849 25.07 14.9 58.7 51 4.8 40.6
02:20 1020 30.12 849 25.07 14.5 58.2 52 5 40.9
02:25 1020 30.12 849 25.07 14.2 57.5 53 4.7 40.5
02:30 1020 30.12 849 25.07 14.2 57.5 51 4.4 39.9
02:35 1020 30.12 849 25.07 14.4 58 50 4.2 39.6
02:40 1020 30.12 849 25.07 14.8 58.7 49 4.2 39.6
02:45 1020 30.12 849 25.07 15.1 59.1 48 4.2 39.5
02:50 1020 30.12 849 25.07 15.2 59.3 48 4.4 39.9
02:55 1020 30.12 849 25.07 15.1 59.2 48 4.2 39.5
03:00 1020 30.12 849 25.07 15 59 49 4.5 40.1
03:05 1020 30.12 849 25.07 14.9 58.7 48 3.9 39.1
03:10 1020 30.12 849 25.07 15.1 59.1 48 4.2 39.6
03:15 1020 30.12 849 25.07 14.8 58.7 49 4.4 39.8
03:20 1020 30.12 849 25.07 15 58.9 48 4.2 39.5
03:25 1020 30.12 849 25.07 14.9 58.9 50 4.6 40.2
03:30 1020 30.12 849 25.07 14.5 58.1 50 4.3 39.8
03:35 1020 30.12 849 25.07 14.6 58.3 50 4.3 39.8
03:40 1020 30.12 849 25.07 14.9 58.8 48 3.9 39.1
03:45 1020 30.12 849 25.07 15.4 59.7 45 3.5 38.3
03:50 1020 30.12 849 25.07 15.7 60.2 46 4.1 39.3
03:55 1020 30.12 849 25.07 15.8 60.5 46 4.3 39.7
04:00 1020 30.12 849 25.07 15.3 59.5 45 3.4 38.1
04:05 1020 30.12 849 25.07 15.8 60.5 46 4.2 39.6
04:10 1020 30.12 849 25.07 15.2 59.3 51 5.1 41.2
04:15 1020 30.12 849 25.07 14.7 58.4 51 4.7 40.5
04:20 1020 30.12 849 25.07 14.1 57.4 54 5 41
04:25 1020 30.12 849 25.07 13.4 56.2 53 4 39.3
04:30 1020 30.12 849 25.07 14.2 57.5 50 4 39.1
04:35 1020 30.12 850 25.1 14.8 58.7 47 3.8 38.8
04:40 1020 30.12 850 25.1 15 58.9 48 4.1 39.4
04:45 1020 30.12 850 25.1 14.9 58.8 45 3.1 37.5
04:50 1020 30.12 850 25.1 15.6 60.1 44 3.6 38.5
04:55 1021 30.15 850 25.1 15.6 60 44 3.6 38.4
05:00 1021 30.15 850 25.1 15.5 59.9 49 5.1 41.1
05:05 1021 30.15 850 25.1 15.2 59.3 48 4.2 39.6
05:10 1021 30.15 850 25.1 15.2 59.4 45 3.6 38.5
05:15 1021 30.15 850 25.1 15 59.1 49 4.5 40.1
05:20 1021 30.15 850 25.1 14.1 57.4 52 4.4 40
05:25 1021 30.15 850 25.1 13.8 56.8 51 4 39.1
05:30 1021 30.15 850 25.1 14 57.1 51 4 39.1
05:35 1021 30.15 850 25.1 14 57.2 51 4.1 39.4
05:40 1021 30.15 850 25.1 14.2 57.5 50 3.9 39.1
05:45 1021 30.15 850 25.1 14.4 57.8 50 4.2 39.5
05:50 1021 30.15 850 25.1 14 57.2 52 4.3 39.8
05:55 1021 30.15 850 25.1 13.9 57.1 50 3.9 38.9
06:00 1021 30.15 850 25.1 14.5 58.1 47 3.3 38
06:05 1021 30.15 850 25.1 15 59.1 48 4.1 39.4
06:10 1021 30.15 850 25.1 14.8 58.7 45 3 37.4
06:15 1021 30.15 850 25.1 15.7 60.2 43 3.4 38
06:20 1021 30.15 850 25.1 15.5 60 45 3.7 38.6
06:25 1021 30.15 850 25.1 15.2 59.4 47 3.9 39.1
06:30 1021 30.15 850 25.1 15 58.9 49 4.3 39.8
06:35 1021 30.15 850 25.1 14.6 58.3 50 4.3 39.7
06:40 1021 30.15 850 25.1 14.5 58.1 48 3.7 38.6
06:45 1021 30.15 850 25.1 15 59.1 49 4.6 40.3
06:50 1021 30.15 850 25.1 15.1 59.1 48 4.3 39.8
06:55 1021 30.15 850 25.1 15.6 60.1 46 4.1 39.3
07:00 1021 30.15 850 25.1 15.6 60.2 48 4.7 40.5
07:05 1021 30.15 850 25.1 15.3 59.5 54 6.3 43.3
07:10 1021 30.15 851 25.13 15.5 60 49 5 41.1
07:15 1021 30.15 851 25.13 15.2 59.4 51 5.4 41.7
07:20 1021 30.15 851 25.13 15 59.1 52 5.4 41.7
07:25 1021 30.15 851 25.13 15.1 59.1 56 6.3 43.4
07:30 1021 30.15 851 25.13 15.2 59.3 54 6 42.8
07:35 1021 30.15 851 25.13 15.3 59.5 53 5.9 42.7
07:40 1021 30.15 851 25.13 15.6 60 51 5.5 41.9
07:45 1021 30.15 851 25.13 16 60.9 48 5 41
07:50 1021 30.15 851 25.13 16.2 61.2 50 5.8 42.4
07:55 1021 30.15 851 25.13 16.6 61.9 49 6 42.8
08:00 1021 30.15 851 25.13 17.4 63.2 47 6 42.9
08:05 1021 30.15 851 25.13 18.2 64.7 44 6 42.8
08:10 1021 30.15 851 25.13 18.3 65 43 5.8 42.4
08:15 1021 30.15 851 25.13 18.6 65.4 42 5.7 42.2
08:20 1021 30.15 851 25.13 19.7 67.4 41 6.2 43.1
08:25 1021 30.15 851 25.13 20.4 68.7 37 5.5 41.8
08:30 1021 30.15 851 25.13 20.6 69.1 39 6.4 43.5
08:35 1021 30.15 851 25.13 20.7 69.3 41 7.1 44.7
08:40 1022 30.18 851 25.13 20.9 69.6 39 6.5 43.8
08:45 1022 30.18 851 25.13 20.8 69.4 37 5.5 42
08:50 1022 30.18 851 25.13 20.7 69.2 37 5.6 42.1
08:55 1022 30.18 851 25.13 20.4 68.6 37 5.5 41.8
09:00 1022 30.18 851 25.13 20.9 69.6 36 5.3 41.5
09:05 1022 30.18 851 25.13 21.8 71.3 33 5 41
09:10 1022 30.18 851 25.13 22.5 72.5 33 5.5 41.9
09:15 1022 30.18 851 25.13 21.9 71.4 38 7.2 45
09:20 1022 30.18 851 25.13 21.7 71.1 36 6.2 43.2
09:25 1022 30.18 851 25.13 22.6 72.6 34 6 42.8
09:30 1022 30.18 851 25.13 23 73.5 31 5.2 41.4
09:35 1022 30.18 851 25.13 23.5 74.2 30 5.3 41.6
09:40 1022 30.18 851 25.13 23.8 74.8 30 5.3 41.5
09:45 1022 30.18 851 25.13 24.1 75.4 30 5.5 41.9
09:50 1022 30.18 851 25.13 23.9 74.9 32 6.4 43.5
09:55 1022 30.18 851 25.13 24 75.2 32 6.7 44.1
10:00 1021 30.15 851 25.13 24.2 75.6 31 6.4 43.4
10:05 1021 30.15 851 25.13 24.4 75.9 31 6.5 43.7
10:10 1021 30.15 851 25.13 24.7 76.4 30 5.9 42.7
10:15 1021 30.15 850 25.1 25.1 77.1 31 6.8 44.2
10:20 1021 30.15 851 25.13 24.8 76.6 32 7 44.7
10:25 1021 30.15 851 25.13 25.1 77.1 31 6.9 44.4
10:30 1021 30.15 851 25.13 25.8 78.4 29 6.8 44.2
10:35 1021 30.15 850 25.1 26 78.8 29 7 44.6
10:40 1021 30.15 850 25.1 25.3 77.6 33 8 46.4
10:45 1021 30.15 850 25.1 24.9 76.7 32 7.3 45.1
10:50 1021 30.15 850 25.1 24.8 76.6 32 7.4 45.3
10:55 1021 30.15 850 25.1 25.2 77.3 31 7.2 45
11:00 1021 30.15 850 25.1 25.7 78.3 30 7.1 44.7
11:05 1021 30.15 850 25.1 26.1 79.1 30 7.4 45.3
11:10 1021 30.15 850 25.1 26.3 79.3 26 5.5 42
11:15 1021 30.15 850 25.1 26.6 79.9 26 6.1 42.9
11:20 1021 30.15 850 25.1 26.8 80.2 22 3.6 38.4
11:25 1021 30.15 850 25.1 26.8 80.3 23 4.1 39.3
11:30 1021 30.15 850 25.1 27.5 81.5 24 5.2 41.4
11:35 1021 30.15 850 25.1 28.3 83 19 2.5 36.6
11:40 1021 30.15 850 25.1 29.2 84.5 20 4.4 39.9
11:45 1021 30.15 850 25.1 28.4 83.2 19 2.7 36.9
11:50 1021 30.15 850 25.1 28.8 83.8 18 2.7 36.9
11:55 1021 30.15 850 25.1 29.6 85.3 17 2.3 36.2
12:00 1021 30.15 850 25.1 30.4 86.7 17 2.6 36.6
12:05 1021 30.15 850 25.1 30.4 86.7 16 2.1 35.7
12:10 1021 30.15 850 25.1 29.6 85.3 18 2.8 37.1
12:15 1021 30.15 850 25.1 29.2 84.6 16 0.8 33.4
12:20 1021 30.15 850 25.1 29.7 85.5 16 1.3 34.3
12:25 1021 30.15 850 25.1 29.8 85.7 15 1.1 34
12:30 1021 30.15 850 25.1 30.1 86.2 17 2.6 36.7
12:35 1021 30.15 850 25.1 29.5 85.1 18 2.8 37
12:40 1021 30.15 850 25.1 28.6 83.5 19 2.7 36.9
12:45 1021 30.15 850 25.1 29 84.2 16 0.9 33.6
12:50 1021 30.15 850 25.1 29.9 85.7 15 1.1 33.9
12:55 1021 30.15 850 25.1 30.5 86.8 15 1.6 34.8
13:00 1021 30.15 850 25.1 30.6 87.2 15 1.4 34.6
13:05 1021 30.15 850 25.1 30.8 87.5 14 0.5 32.9
13:10 1021 30.15 850 25.1 30.3 86.5 12 -1.7 28.9
13:15 1021 30.15 850 25.1 30.5 86.8 12 -1.6 29.1
13:20 1020 30.12 850 25.1 30.3 86.5 12 -1.8 28.7
13:25 1020 30.12 850 25.1 30.4 86.6 13 -0.9 30.4
13:30 1020 30.12 850 25.1 30.3 86.5 12 -1.5 29.2
13:35 1020 30.12 850 25.1 30.6 87 13 -0.5 31.1
13:40 1020 30.12 850 25.1 30.5 87 14 0.3 32.5
13:45 1020 30.12 850 25.1 31 87.7 13 -0.8 30.6
13:50 1020 30.12 849 25.07 31.3 88.3 11 -2.1 28.2
13:55 1020 30.12 849 25.07 31.6 88.9 13 0.2 32.4
14:00 1020 30.12 849 25.07 30.5 86.9 14 0.7 33.3
14:05 1020 30.12 849 25.07 31.2 88.1 13 -0.5 31.1
14:10 1020 30.12 849 25.07 32.2 90 13 0.7 33.2
14:15 1020 30.12 849 25.07 32.3 90.1 12 -0.3 31.5
14:20 1020 30.12 849 25.07 32.2 90 12 -0.6 30.8
14:25 1020 30.12 849 25.07 32.4 90.4 12 0.1 32.2
14:30 1020 30.12 849 25.07 32.8 91 12 -0.3 31.4
14:35 1020 30.12 849 25.07 32.5 90.4 12 0.2 32.4
14:40 1020 30.12 849 25.07 31.3 88.4 13 -0.2 31.7
14:45 1020 30.12 849 25.07 31.5 88.7 13 -0.2 31.6
14:50 1020 30.12 849 25.07 31.6 88.8 12 -0.6 31
14:55 1020 30.12 849 25.07 32 89.7 12 -0.5 31.1
15:00 1020 30.12 849 25.07 32 89.5 13 0 32.1
15:05 1020 30.12 849 25.07 32.2 89.9 12 0.1 32.2
15:10 1020 30.12 849 25.07 32.3 90.1 12 -0 31.9
15:15 1020 30.12 849 25.07 31.9 89.4 13 0 32
15:20 1020 30.12 849 25.07 31.7 89.1 13 0.4 32.7
15:25 1019 30.09 849 25.07 31.3 88.3 13 0 32
15:30 1019 30.09 849 25.07 31.6 88.9 12 -0.7 30.7
15:35 1019 30.09 849 25.07 32.8 91.1 12 0.1 32.1
15:40 1019 30.09 848 25.04 32.9 91.3 12 -0 31.9
15:45 1019 30.09 848 25.04 32.4 90.2 12 -0 31.9
15:50 1019 30.09 848 25.04 32.5 90.4 12 -0.5 31.1
15:55 1019 30.09 848 25.04 32.2 89.9 12 -0.2 31.6
16:00 1019 30.09 848 25.04 32.1 89.7 13 0.1 32.1
16:05 1019 30.09 848 25.04 31.7 89 13 0.2 32.4
16:10 1019 30.09 848 25.04 31.6 88.9 13 0.2 32.4
16:15 1019 30.09 848 25.04 32 89.6 13 0.4 32.8
16:20 1019 30.09 848 25.04 32.4 90.3 12 -0.5 31.1
16:25 1019 30.09 848 25.04 32.8 91.1 14 2.3 36.1
16:30 1019 30.09 848 25.04 33.2 91.7 12 0.3 32.5
16:35 1019 30.09 848 25.04 32.7 90.8 12 0.4 32.8
16:40 1019 30.09 848 25.04 31.6 88.8 14 1.2 34.1
16:45 1019 30.09 848 25.04 30.8 87.5 15 1.5 34.6
16:50 1019 30.09 848 25.04 30.5 87 13 -0.2 31.6
16:55 1019 30.09 848 25.04 30.7 87.3 14 0.1 32.2
17:00 1019 30.09 848 25.04 31.1 88 16 2.3 36.1
17:05 1019 30.09 848 25.04 31 87.7 15 2.1 35.7
17:10 1019 30.09 848 25.04 30.8 87.5 16 2.5 36.5
17:15 1019 30.09 848 25.04 30.1 86.1 18 3.4 38.2
17:20 1019 30.09 848 25.04 29.9 85.8 18 3.6 38.4
17:25 1019 30.09 848 25.04 29.9 85.8 19 4 39.3
17:30 1019 30.09 848 25.04 29.7 85.4 20 4.6 40.3
17:35 1019 30.09 848 25.04 29.4 84.9 18 3.2 37.8
17:40 1019 30.09 848 25.04 29.3 84.8 21 4.7 40.5
17:45 1019 30.09 848 25.04 29.1 84.4 23 6.2 43.1
17:50 1019 30.09 848 25.04 29.1 84.5 23 6.3 43.4
17:55 1019 30.09 848 25.04 29 84.1 24 6.8 44.3
18:00 1019 30.09 848 25.04 28.7 83.6 20 4.2 39.5
18:05 1019 30.09 848 25.04 29 84.2 22 5.3 41.6
18:10 1019 30.09 848 25.04 28.7 83.7 21 4.9 40.8
18:15 1019 30.09 848 25.04 28.5 83.3 23 5.5 41.9
18:20 1019 30.09 848 25.04 28.5 83.2 21 4.3 39.8
18:25 1019 30.09 848 25.04 28.6 83.5 23 5.8 42.4
18:30 1020 30.12 849 25.07 28.4 83 28 8.2 46.7
18:35 1020 30.12 849 25.07 26.1 78.9 31 7.8 46
18:40 1020 30.12 850 25.1 24.7 76.4 33 7.5 45.4
18:45 1021 30.15 850 25.1 24.1 75.4 38 9.2 48.5
18:50 1021 30.15 850 25.1 23.4 74 44 10.6 51
18:55 1021 30.15 850 25.1 22.9 73.2 44 10.2 50.4
19:00 1021 30.15 851 25.13 22.9 73.1 43 9.8 49.6
19:05 1021 30.15 851 25.13 23 73.3 40 9 48.2
19:10 1021 30.15 851 25.13 23 73.3 41 9.2 48.5
19:15 1021 30.15 851 25.13 23.1 73.6 40 8.9 48.1
19:20 1022 30.18 851 25.13 23.2 73.7 42 9.7 49.4
19:25 1022 30.18 851 25.13 22.7 72.9 42 9.5 49
19:30 1022 30.18 851 25.13 22.5 72.5 41 8.7 47.6
19:35 1022 30.18 851 25.13 22.6 72.6 44 9.7 49.5
19:40 1022 30.18 851 25.13 22.4 72.4 41 8.8 47.9
19:45 1022 30.18 851 25.13 22.5 72.4 46 10.6 51
19:50 1022 30.18 851 25.13 22.6 72.7 44 9.9 49.8
19:55 1022 30.18 851 25.13 22.7 72.9 41 9.1 48.3
20:00 1022 30.18 851 25.13 22.4 72.3 45 10 50
20:05 1022 30.18 851 25.13 21.9 71.5 48 10.5 50.9
20:10 1022 30.18 851 25.13 21.8 71.3 45 9.6 49.3
20:15 1022 30.18 851 25.13 22.1 71.8 42 8.9 48
20:20 1022 30.18 851 25.13 22.4 72.3 41 8.8 47.8
20:25 1021 30.15 851 25.13 22.5 72.5 40 8.5 47.3
20:30 1021 30.15 851 25.13 22.4 72.4 39 8 46.5
20:35 1021 30.15 851 25.13 22.6 72.6 39 8.2 46.7
20:40 1021 30.15 851 25.13 22.5 72.5 40 8.5 47.3
20:45 1021 30.15 851 25.13 22 71.5 44 9.5 49
20:50 1021 30.15 851 25.13 21.6 70.9 47 9.8 49.7
20:55 1021 30.15 851 25.13 21.5 70.7 45 9.1 48.4
21:00 1022 30.18 851 25.13 21.6 70.8 44 8.9 48
21:05 1022 30.18 851 25.13 21.6 70.9 45 9.5 49.1
21:10 1022 30.18 851 25.13 21.6 70.8 44 8.8 47.9
21:15 1022 30.18 851 25.13 21.5 70.7 43 8.6 47.5
21:20 1021 30.15 851 25.13 21.5 70.8 43 8.5 47.3
21:25 1022 30.18 851 25.13 21.6 70.8 43 8.6 47.5
21:30 1022 30.18 851 25.13 21.5 70.8 42 8.4 47.1
21:35 1022 30.18 851 25.13 21.3 70.4 44 8.8 47.8
21:40 1021 30.15 851 25.13 21.3 70.3 45 9 48.1
21:45 1021 30.15 851 25.13 21.4 70.5 43 8.5 47.3
21:50 1021 30.15 851 25.13 21.3 70.3 45 9.1 48.4
21:55 1021 30.15 850 25.1 21.2 70.2 44 8.8 47.8
22:00 1021 30.15 850 25.1 20.9 69.6 46 8.9 48
22:05 1021 30.15 851 25.13 20.8 69.5 45 8.6 47.4
22:10 1021 30.15 851 25.13 20.8 69.4 47 9 48.3
22:15 1021 30.15 850 25.1 20.5 68.9 47 9 48.2
22:20 1021 30.15 850 25.1 20.4 68.8 48 9.1 48.4
22:25 1021 30.15 851 25.13 20.3 68.6 48 9.2 48.6
22:30 1021 30.15 850 25.1 20.2 68.3 50 9.4 49
22:35 1021 30.15 850 25.1 20 68 50 9.5 49.2
22:40 1021 30.15 850 25.1 20.3 68.5 45 8.2 46.8
22:45 1021 30.15 850 25.1 20.6 69.1 46 8.6 47.4
22:50 1021 30.15 850 25.1 20.5 68.9 46 8.6 47.5
22:55 1021 30.15 850 25.1 20.3 68.5 52 10.1 50.2
23:00 1021 30.15 850 25.1 20 68.1 49 9 48.3
23:05 1021 30.15 850 25.1 19.7 67.4 50 9.1 48.4
23:10 1021 30.15 850 25.1 19.4 66.9 51 9.2 48.6
23:15 1021 30.15 850 25.1 19.3 66.7 54 10 50
23:20 1021 30.15 850 25.1 19.1 66.4 51 8.9 47.9
23:25 1021 30.15 850 25.1 19.4 67 49 8.6 47.4
23:30 1021 30.15 850 25.1 19.5 67.1 49 8.7 47.7
23:35 1021 30.15 850 25.1 19.2 66.6 54 9.9 49.8
23:40 1021 30.15 850 25.1 18.9 65.9 52 9 48.2
23:45 1021 30.15 850 25.1 18.8 65.9 52 8.8 47.9
23:50 1021 30.15 850 25.1 18.8 65.9 57 10.2 50.3
23:55 1021 30.15 851 25.13 18.6 65.4 54 9.3 48.7
24:00 1021 30.15 851 25.13 18.5 65.2 54 9.2 48.5